Time;durP1;ratioP1;P1;durP2;ratioP2;P2;SDS_P1;SDS_P2;PMS_P1;PMS_P2;Temp;Humidity;BMP_temperature;BMP_pressure;BME280_temperature;BME280_humidity;BME280_pressure;Samples;Min_cycle;Max_cycle;Signal;HPM_P1;HPM_P2
2022/03/21 00:01:57;;;;;;;23.52;13.45;;;;;;;9.21;69.83;101235.09;4926929;29;20035;-80
2022/03/21 00:04:23;;;;;;;23.95;11.20;;;;;;;9.04;70.92;101239.38;4925394;29;20416;-82
2022/03/21 00:06:49;;;;;;;24.13;11.70;;;;;;;8.97;71.59;101229.38;4924871;29;20707;-81
2022/03/21 00:09:14;;;;;;;26.42;12.73;;;;;;;9.17;70.01;101225.69;4925965;29;20030;-81
2022/03/21 00:11:40;;;;;;;17.55;9.68;;;;;;;9.05;69.22;101227.47;4924531;29;20074;-82
2022/03/21 00:14:05;;;;;;;36.83;13.90;;;;;;;8.99;69.96;101231.88;4924529;29;20445;-81
2022/03/21 00:16:31;;;;;;;24.90;13.50;;;;;;;9.18;70.32;101221.94;4923762;29;20357;-81
2022/03/21 00:18:56;;;;;;;24.48;14.35;;;;;;;9.25;70.61;101231.94;4924859;29;20031;-81
2022/03/21 00:21:22;;;;;;;29.92;16.50;;;;;;;9.09;71.11;101234.13;4915649;29;20095;-81
2022/03/21 00:23:48;;;;;;;33.67;15.50;;;;;;;9.01;72.43;101228.97;4923930;29;20506;-81
2022/03/21 00:26:15;;;;;;;25.95;14.52;;;;;;;9.21;70.99;101228.84;4925189;29;20289;-81
2022/03/21 00:28:41;;;;;;;27.65;13.30;;;;;;;9.22;70.32;101223.16;4924387;29;20090;-81
2022/03/21 00:31:06;;;;;;;27.13;14.02;;;;;;;9.25;69.84;101229.22;4923868;29;20023;-82
2022/03/21 00:33:32;;;;;;;28.00;15.77;;;;;;;9.20;70.53;101233.44;4924367;29;20490;-81
2022/03/21 00:35:58;;;;;;;28.70;16.45;;;;;;;9.13;70.25;101239.97;4924645;29;20083;-81
2022/03/21 00:38:25;;;;;;;22.75;12.65;;;;;;;9.06;69.32;101231.84;4924871;29;20066;-80
2022/03/21 00:40:50;;;;;;;20.65;12.52;;;;;;;9.15;67.05;101227.81;4923769;29;20277;-81
2022/03/21 00:46:37;;;;;;;44.03;10.45;;;;;;;9.17;67.31;101236.56;4922991;29;20131;-81
2022/03/21 00:49:08;;;;;;;20.27;10.00;;;;;;;9.32;64.70;101233.56;4924086;29;20131;-79
2022/03/21 00:51:34;;;;;;;16.92;8.32;;;;;;;9.03;66.85;101237.72;4923989;29;20297;-82
2022/03/21 00:53:59;;;;;;;20.45;8.80;;;;;;;9.09;67.34;101242.31;4936863;29;20649;-80
2022/03/21 00:56:24;;;;;;;19.35;9.13;;;;;;;9.25;64.54;101240.09;4942986;29;20085;-81
2022/03/21 00:58:49;;;;;;;22.17;8.85;;;;;;;9.14;62.45;101228.88;4943216;29;20485;-81
2022/03/21 01:01:15;;;;;;;19.85;8.50;;;;;;;9.53;61.90;101238.84;4931745;29;20475;-81
2022/03/21 01:03:40;;;;;;;21.95;10.07;;;;;;;9.45;61.51;101243.53;4923862;29;20028;-81
2022/03/21 01:06:05;;;;;;;15.20;7.40;;;;;;;9.36;62.07;101242.09;4923832;29;20051;-81
2022/03/21 01:08:31;;;;;;;24.40;9.63;;;;;;;9.30;62.42;101249.28;4923365;29;20030;-81
2022/03/21 01:10:56;;;;;;;22.10;11.77;;;;;;;9.24;65.03;101247.44;4923333;29;20270;-79
2022/03/21 01:13:21;;;;;;;17.77;9.52;;;;;;;9.03;66.66;101243.97;4924236;29;20034;-81
2022/03/21 01:15:46;;;;;;;21.27;11.38;;;;;;;9.42;66.59;101238.50;4923335;29;20023;-81
2022/03/21 01:18:12;;;;;;;22.20;9.70;;;;;;;9.48;67.10;101238.69;4923746;29;20337;-82
2022/03/21 01:20:37;;;;;;;25.65;13.18;;;;;;;8.92;67.49;101236.53;4923063;29;20492;-81
2022/03/21 01:23:02;;;;;;;20.13;11.15;;;;;;;9.27;66.83;101246.16;4923270;29;20063;-81
2022/03/21 01:25:28;;;;;;;28.65;12.35;;;;;;;9.04;67.31;101242.09;4923721;29;20456;-81
2022/03/21 01:27:53;;;;;;;25.20;12.13;;;;;;;9.05;66.75;101249.22;4922701;29;20289;-82
2022/03/21 01:30:18;;;;;;;23.52;10.57;;;;;;;8.85;68.51;101242.00;4922594;29;20031;-81
2022/03/21 01:32:45;;;;;;;22.95;12.02;;;;;;;8.98;68.83;101246.53;4922667;29;20035;-81
2022/03/21 01:35:16;;;;;;;23.38;11.18;;;;;;;8.82;70.34;101248.72;4923624;29;20542;-82
2022/03/21 01:37:42;;;;;;;25.48;11.50;;;;;;;8.99;70.04;101254.47;4923382;29;20027;-82
2022/03/21 01:40:09;;;;;;;25.15;11.57;;;;;;;9.19;69.40;101248.06;4922766;29;20031;-82
2022/03/21 01:45:39;;;;;;;24.27;12.20;;;;;;;9.34;69.11;101245.06;4916939;29;20055;-81
2022/03/21 01:48:05;;;;;;;23.67;11.10;;;;;;;9.07;69.87;101244.41;4923249;29;20167;-81
2022/03/21 01:50:30;;;;;;;24.52;12.30;;;;;;;9.20;69.11;101244.31;4922570;29;20472;-81
2022/03/21 01:55:44;;;;;;;35.33;13.15;;;;;;;9.21;69.67;101248.69;4942696;29;20049;-81
2022/03/21 01:58:11;;;;;;;24.92;13.35;;;;;;;8.92;70.25;101245.53;4924444;29;20039;-81
2022/03/21 02:00:37;;;;;;;23.23;13.35;;;;;;;8.98;70.46;101241.09;4936385;29;20123;-81
2022/03/21 02:03:03;;;;;;;25.60;13.80;;;;;;;9.19;69.96;101247.25;4937102;29;20118;-81
2022/03/21 02:05:28;;;;;;;22.80;13.07;;;;;;;8.94;70.91;101246.16;4928623;29;20190;-81
2022/03/21 02:07:53;;;;;;;35.33;15.32;;;;;;;9.10;70.12;101254.84;4922894;29;20032;-82
2022/03/21 02:10:19;;;;;;;36.03;15.10;;;;;;;9.21;70.12;101250.59;4922570;29;20502;-81
2022/03/21 02:12:45;;;;;;;25.60;13.85;;;;;;;9.05;70.77;101244.59;4922664;29;20027;-81
2022/03/21 02:15:11;;;;;;;36.85;17.77;;;;;;;9.19;70.09;101253.53;4922906;29;20431;-81
2022/03/21 02:17:56;;;;;;;37.38;18.55;;;;;;;9.20;69.69;101247.03;4922521;29;20464;-81
2022/03/21 02:20:23;;;;;;;36.17;17.85;;;;;;;9.17;69.82;101244.75;4922021;29;20059;-81
2022/03/21 02:23:07;;;;;;;29.75;14.13;;;;;;;9.01;70.04;101243.38;4923078;29;20134;-81
2022/03/21 02:25:41;;;;;;;31.23;15.97;;;;;;;8.90;70.77;101247.63;4922514;29;20031;-81
2022/03/21 02:28:09;;;;;;;23.20;13.70;;;;;;;8.69;71.40;101249.59;4922594;29;20114;-81
2022/03/21 02:30:38;;;;;;;27.83;14.90;;;;;;;8.71;71.53;101247.50;4922133;29;20482;-81
2022/03/21 02:33:04;;;;;;;29.48;12.75;;;;;;;8.68;71.30;101245.22;4904699;29;20032;-81
2022/03/21 02:35:32;;;;;;;29.00;15.05;;;;;;;8.87;70.89;101245.31;4923458;29;20553;-80
2022/03/21 02:37:59;;;;;;;24.92;14.52;;;;;;;8.92;70.79;101242.81;4922473;29;20487;-81
2022/03/21 02:40:40;;;;;;;27.15;14.00;;;;;;;8.91;71.06;101241.13;4924673;29;20030;-82
2022/03/21 02:43:06;;;;;;;28.10;15.23;;;;;;;8.62;71.40;101243.38;4926351;29;20032;-81
2022/03/21 02:45:31;;;;;;;24.77;12.43;;;;;;;8.74;71.46;101236.22;4926004;29;20055;-81
2022/03/21 02:47:56;;;;;;;26.15;12.88;;;;;;;8.69;71.12;101243.31;4944322;29;20110;-81
2022/03/21 02:50:29;;;;;;;32.53;13.00;;;;;;;8.68;71.58;101238.94;4941313;29;20062;-81
2022/03/21 02:52:56;;;;;;;25.60;15.00;;;;;;;8.48;72.54;101243.38;4931936;29;20575;-81
2022/03/21 02:55:21;;;;;;;25.02;13.50;;;;;;;8.49;72.45;101245.06;4945479;29;20031;-82
2022/03/21 02:57:46;;;;;;;29.48;14.90;;;;;;;8.52;72.79;101239.16;4944974;29;20027;-81
2022/03/21 03:00:12;;;;;;;28.35;15.10;;;;;;;8.59;72.33;101238.34;4942613;29;20030;-80
2022/03/21 03:02:38;;;;;;;32.15;17.33;;;;;;;8.66;71.72;101236.44;4925539;29;20310;-81
2022/03/21 03:05:03;;;;;;;34.65;16.58;;;;;;;8.72;71.79;101232.88;4926250;29;20123;-81
2022/03/21 03:07:28;;;;;;;34.95;18.67;;;;;;;8.61;72.25;101233.53;4925580;29;20042;-81
2022/03/21 03:09:53;;;;;;;28.17;14.70;;;;;;;8.57;72.15;101232.28;4926343;29;20039;-82
2022/03/21 03:15:04;;;;;;;39.60;16.98;;;;;;;8.13;73.51;101230.09;4922708;29;20101;-82
2022/03/21 03:17:29;;;;;;;27.65;15.48;;;;;;;8.35;72.49;101211.66;4925000;29;20048;-81
2022/03/21 03:19:54;;;;;;;30.10;15.27;;;;;;;8.37;72.21;101230.44;4924699;29;20462;-82
2022/03/21 03:22:21;;;;;;;26.25;13.10;;;;;;;8.23;71.89;101233.22;4925065;29;20249;-81
2022/03/21 03:24:48;;;;;;;24.92;14.85;;;;;;;8.40;71.62;101219.16;4924550;29;20486;-81
2022/03/21 03:27:13;;;;;;;24.98;14.45;;;;;;;8.36;72.16;101216.03;4926352;29;20054;-81
2022/03/21 03:29:38;;;;;;;26.85;15.90;;;;;;;8.28;72.01;101224.41;4925522;29;20495;-81
2022/03/21 03:32:05;;;;;;;28.03;15.03;;;;;;;8.29;72.46;101232.38;4925359;29;20114;-81
2022/03/21 03:34:33;;;;;;;35.10;16.55;;;;;;;8.29;72.32;101221.50;4925360;29;21113;-81
2022/03/21 03:36:59;;;;;;;34.80;18.40;;;;;;;8.21;72.66;101224.44;4939673;29;20028;-82
2022/03/21 03:39:26;;;;;;;31.73;18.77;;;;;;;8.13;72.62;101224.66;4925446;29;20418;-81
2022/03/21 03:41:51;;;;;;;33.75;15.60;;;;;;;8.03;73.12;101227.81;4907642;29;20515;-81
2022/03/21 03:44:17;;;;;;;28.38;16.42;;;;;;;8.01;72.88;101233.47;4925735;29;20028;-82
2022/03/21 03:46:44;;;;;;;24.73;15.23;;;;;;;7.87;73.54;101227.19;4925287;29;20705;-81
2022/03/21 03:49:09;;;;;;;32.00;17.08;;;;;;;8.08;72.65;101230.72;4925631;29;20020;-81
2022/03/21 03:51:34;;;;;;;35.10;18.45;;;;;;;8.09;73.30;101229.69;4924152;29;20113;-80
2022/03/21 03:54:00;;;;;;;30.88;17.85;;;;;;;8.18;72.76;101233.00;4921986;29;20057;-81
2022/03/21 03:56:25;;;;;;;29.48;16.40;;;;;;;8.08;73.76;101222.56;4944063;29;20485;-81
2022/03/21 03:58:51;;;;;;;32.25;15.98;;;;;;;8.20;73.12;101228.19;4944255;29;20082;-80
2022/03/21 04:01:30;;;;;;;43.45;22.02;;;;;;;8.18;73.13;101227.56;4932863;29;20087;-81
2022/03/21 04:03:59;;;;;;;32.20;17.63;;;;;;;8.07;73.13;101220.91;4924874;29;20036;-82
2022/03/21 04:06:25;;;;;;;39.63;20.10;;;;;;;8.20;72.60;101220.03;4925270;29;20245;-81
2022/03/21 04:08:51;;;;;;;35.63;20.77;;;;;;;8.16;72.45;101224.22;4924899;29;20131;-81
2022/03/21 04:11:17;;;;;;;35.75;20.30;;;;;;;8.26;71.74;101229.22;4924896;29;20051;-81
2022/03/21 04:13:43;;;;;;;31.00;19.98;;;;;;;8.37;70.73;101225.00;4925414;29;20036;-82
2022/03/21 04:16:09;;;;;;;31.65;17.10;;;;;;;8.56;69.75;101225.16;4933967;29;20113;-82
2022/03/21 04:18:37;;;;;;;31.30;19.25;;;;;;;8.56;68.46;101222.44;4926950;29;20027;-81
2022/03/21 04:21:04;;;;;;;32.25;17.15;;;;;;;8.67;67.81;101220.94;4917198;29;20231;-81
2022/03/21 04:23:29;;;;;;;33.45;18.10;;;;;;;8.74;67.46;101225.34;4924516;29;20585;-81
2022/03/21 04:26:09;;;;;;;27.48;14.98;;;;;;;8.72;67.07;101232.88;4909467;29;20055;-82
2022/03/21 04:28:34;;;;;;;30.98;16.20;;;;;;;8.55;66.87;101220.75;4923968;29;20162;-82
2022/03/21 04:31:00;;;;;;;29.70;15.40;;;;;;;8.67;66.44;101235.38;4923838;29;20942;-81
2022/03/21 04:33:25;;;;;;;31.45;17.15;;;;;;;8.68;65.86;101228.91;4924292;29;20282;-81
2022/03/21 04:35:50;;;;;;;23.33;14.27;;;;;;;8.68;66.40;101231.63;4924678;29;20213;-82
2022/03/21 04:38:17;;;;;;;41.38;17.30;;;;;;;8.57;66.41;101235.00;4923809;29;20344;-82
2022/03/21 04:40:44;;;;;;;33.00;14.63;;;;;;;8.27;67.75;101239.06;4930567;29;20097;-81
2022/03/21 04:43:11;;;;;;;28.45;14.93;;;;;;;8.44;67.70;101239.41;4943114;29;20042;-82
2022/03/21 04:45:37;;;;;;;25.13;13.65;;;;;;;8.11;67.61;101243.06;4943510;29;20878;-81
2022/03/21 04:48:04;;;;;;;26.58;15.27;;;;;;;8.00;67.57;101244.53;4943214;29;20027;-81
2022/03/21 04:50:29;;;;;;;25.17;13.43;;;;;;;8.01;68.16;101249.78;4942128;29;20336;-82
2022/03/21 04:55:40;;;;;;;26.40;12.77;;;;;;;7.80;68.50;101254.38;4938339;29;20042;-82
2022/03/21 04:58:05;;;;;;;27.30;13.68;;;;;;;7.75;67.89;101259.56;4943562;29;20039;-80
2022/03/21 05:00:31;;;;;;;27.30;13.93;;;;;;;7.59;67.34;101253.53;4937367;29;20068;-81
2022/03/21 05:02:56;;;;;;;28.15;15.27;;;;;;;7.69;67.71;101253.13;4922480;29;20079;-81
2022/03/21 05:05:21;;;;;;;27.98;15.30;;;;;;;7.64;66.38;101249.34;4923498;29;20143;-81
2022/03/21 05:07:52;;;;;;;21.55;11.75;;;;;;;7.76;66.54;101255.84;4923973;29;20122;-81
2022/03/21 05:10:18;;;;;;;27.08;12.75;;;;;;;7.70;66.67;101262.94;4923730;29;20031;-81
2022/03/21 05:12:43;;;;;;;26.30;13.52;;;;;;;7.73;66.26;101258.13;4923844;29;20402;-81
2022/03/21 05:15:09;;;;;;;23.88;12.40;;;;;;;7.62;66.30;101256.88;4923672;29;20087;-82
2022/03/21 05:17:35;;;;;;;22.55;13.88;;;;;;;7.51;65.73;101256.44;4922373;29;20465;-82
2022/03/21 05:20:02;;;;;;;21.23;12.35;;;;;;;7.61;65.72;101263.34;4922888;29;20038;-81
2022/03/21 05:22:27;;;;;;;24.70;12.65;;;;;;;7.51;65.65;101263.75;4923964;29;20028;-81
2022/03/21 05:30:57;;;;;;;23.08;12.80;;;;;;;7.38;64.84;101267.28;4924199;29;20119;-82
2022/03/21 05:35:59;;;;;;;25.13;14.48;;;;;;;7.57;61.05;101266.47;4924002;29;20249;-82
2022/03/21 05:38:26;;;;;;;24.17;13.60;;;;;;;7.75;61.96;101275.88;4923154;29;20023;-82
2022/03/21 05:40:52;;;;;;;23.73;13.75;;;;;;;7.84;62.03;101273.78;4923816;29;20792;-83
2022/03/21 05:43:19;;;;;;;25.65;13.63;;;;;;;7.67;61.66;101289.66;4923586;29;20078;-82
2022/03/21 05:45:44;;;;;;;21.67;11.40;;;;;;;7.88;60.17;101283.19;4923455;29;20358;-82
2022/03/21 05:50:55;;;;;;;22.15;11.68;;;;;;;8.18;57.79;101284.63;4922623;29;20885;-81
2022/03/21 05:53:20;;;;;;;24.55;12.93;;;;;;;8.11;58.39;101286.53;4923213;29;20496;-81
2022/03/21 05:55:46;;;;;;;23.73;11.90;;;;;;;8.04;58.45;101291.94;4921900;29;20031;-81
2022/03/21 05:58:13;;;;;;;25.63;13.02;;;;;;;8.34;57.64;101290.69;4922884;29;20094;-81
2022/03/21 06:00:39;;;;;;;21.10;10.93;;;;;;;8.06;55.67;101290.69;4935278;29;20066;-82
2022/03/21 06:03:04;;;;;;;20.70;11.43;;;;;;;8.50;55.75;101289.38;4923009;29;20063;-81
2022/03/21 06:08:14;;;;;;;;;;;;;;;8.34;55.91;101296.13;4942116;28;20103;-81
2022/03/21 06:10:39;;;;;;;24.27;12.93;;;;;;;8.24;58.72;101297.38;4927146;29;20021;-79
2022/03/21 06:13:05;;;;;;;22.17;12.82;;;;;;;7.83;60.63;101308.25;4924104;29;20114;-79
2022/03/21 06:15:32;;;;;;;20.65;11.52;;;;;;;7.87;60.58;101310.56;4923975;29;20122;-81
2022/03/21 06:17:59;;;;;;;23.50;11.80;;;;;;;7.80;60.96;101303.25;4906397;29;20047;-81
2022/03/21 06:20:28;;;;;;;23.92;13.07;;;;;;;7.83;61.22;101310.97;4924181;29;20458;-81
2022/03/21 06:22:54;;;;;;;18.85;10.57;;;;;;;7.95;61.01;101315.78;4924050;29;20039;-79
2022/03/21 06:25:20;;;;;;;22.45;12.82;;;;;;;7.97;61.63;101312.84;4923899;29;20035;-81
2022/03/21 06:27:45;;;;;;;33.05;12.20;;;;;;;7.75;62.54;101315.78;4923680;29;20020;-81
2022/03/21 06:30:10;;;;;;;22.45;12.98;;;;;;;7.78;62.43;101320.78;4923606;29;20036;-80
2022/03/21 06:32:37;;;;;;;19.90;11.80;;;;;;;7.93;60.84;101321.41;4936214;29;20071;-80
2022/03/21 06:35:04;;;;;;;23.77;12.88;;;;;;;7.99;60.46;101325.19;4939851;29;20098;-80
2022/03/21 06:37:31;;;;;;;21.52;12.38;;;;;;;8.26;58.16;101316.16;4934221;29;20783;-82
2022/03/21 06:39:56;;;;;;;25.10;13.43;;;;;;;8.20;57.46;101317.03;4936575;29;20118;-82
2022/03/21 06:42:21;;;;;;;24.10;12.18;;;;;;;8.21;58.24;101333.13;4924320;29;20106;-81
2022/03/21 06:44:50;;;;;;;21.35;10.52;;;;;;;8.25;59.90;101328.09;4927060;29;20028;-81
2022/03/21 06:47:17;;;;;;;23.10;12.50;;;;;;;8.18;59.17;101328.94;4924038;29;20087;-81
2022/03/21 06:49:43;;;;;;;23.95;12.52;;;;;;;8.36;57.97;101318.47;4925301;29;20448;-81
2022/03/21 06:52:09;;;;;;;22.17;11.90;;;;;;;8.17;59.96;101331.88;4924955;29;20116;-81
2022/03/21 06:54:36;;;;;;;20.15;11.48;;;;;;;8.12;55.63;101337.06;4944360;29;20019;-82
2022/03/21 06:57:02;;;;;;;19.98;11.40;;;;;;;8.50;57.04;101338.31;4943771;29;20059;-79
2022/03/21 06:59:29;;;;;;;23.40;11.73;;;;;;;8.60;56.45;101340.63;4941700;29;20070;-80
2022/03/21 07:01:55;;;;;;;23.00;12.23;;;;;;;8.63;58.40;101342.91;4925321;29;20044;-77
2022/03/21 07:04:21;;;;;;;20.10;11.90;;;;;;;8.22;61.91;101342.94;4923291;29;20035;-83
2022/03/21 07:06:46;;;;;;;19.08;11.00;;;;;;;8.28;59.39;101342.09;4925682;29;20573;-81
2022/03/21 07:09:11;;;;;;;18.67;12.00;;;;;;;8.53;57.34;101343.31;4924706;29;20075;-82
2022/03/21 07:11:37;;;;;;;22.90;12.57;;;;;;;8.69;56.57;101339.34;4908204;29;20632;-82
2022/03/21 07:14:03;;;;;;;21.80;12.43;;;;;;;8.91;54.24;101344.50;4924885;29;20032;-82
2022/03/21 07:16:28;;;;;;;25.70;12.10;;;;;;;8.95;54.77;101348.44;4923481;29;20538;-83
2022/03/21 07:21:38;;;;;;;19.35;12.05;;;;;;;8.92;54.14;101345.31;4922902;29;20225;-82
2022/03/21 07:24:03;;;;;;;22.52;11.32;;;;;;;8.88;52.10;101344.94;4925264;29;21169;-83
2022/03/21 07:26:29;;;;;;;21.40;10.98;;;;;;;9.06;53.52;101346.13;4927003;29;20528;-82
2022/03/21 07:28:54;;;;;;;20.38;11.55;;;;;;;9.13;53.54;101346.94;4922787;29;20046;-82
2022/03/21 07:31:19;;;;;;;25.30;12.55;;;;;;;9.12;53.03;101342.53;4928168;29;20049;-82
2022/03/21 07:33:44;;;;;;;21.30;11.30;;;;;;;9.15;52.99;101338.53;4926047;29;20027;-82
2022/03/21 07:36:10;;;;;;;21.55;11.15;;;;;;;9.13;53.27;101346.94;4924621;29;20075;-81
2022/03/21 07:38:37;;;;;;;20.70;10.00;;;;;;;9.12;53.36;101356.13;4925590;29;20027;-82
2022/03/21 07:43:48;;;;;;;20.90;11.88;;;;;;;9.11;53.13;101355.28;4935578;29;20054;-79
2022/03/21 07:48:57;;;;;;;25.13;12.38;;;;;;;9.20;52.52;101355.88;4944738;29;20268;-82
2022/03/21 07:51:23;;;;;;;24.52;12.23;;;;;;;9.01;52.51;101357.63;4932605;29;20035;-83
2022/03/21 07:53:48;;;;;;;21.08;12.07;;;;;;;9.31;51.87;101353.53;4925144;29;20446;-83
2022/03/21 07:56:13;;;;;;;25.27;12.55;;;;;;;9.30;52.52;101363.59;4906857;29;20024;-83
2022/03/21 07:58:39;;;;;;;21.98;12.40;;;;;;;9.31;52.66;101365.28;4925445;29;20566;-81
2022/03/21 08:01:06;;;;;;;22.42;11.63;;;;;;;9.29;52.39;101371.97;4907366;29;20450;-83
2022/03/21 08:03:31;;;;;;;20.13;12.10;;;;;;;9.34;52.69;101370.28;4925663;29;20040;-82
2022/03/21 08:05:59;;;;;;;22.40;11.18;;;;;;;9.49;52.47;101373.75;4925513;29;20042;-81
2022/03/21 08:08:27;;;;;;;28.95;13.80;;;;;;;9.41;52.25;101369.41;4944078;29;20249;-82
2022/03/21 08:10:52;;;;;;;24.25;11.77;;;;;;;9.45;52.39;101368.75;4935672;29;20027;-83
2022/03/21 08:13:19;;;;;;;21.20;12.25;;;;;;;9.61;52.50;101372.00;4924707;29;20498;-83
2022/03/21 08:15:44;;;;;;;20.02;11.38;;;;;;;9.61;52.82;101374.72;4925671;29;20444;-84
2022/03/21 08:18:11;;;;;;;21.98;11.90;;;;;;;9.71;52.16;101384.31;4906498;29;20043;-82
2022/03/21 08:20:38;;;;;;;21.88;11.65;;;;;;;9.73;52.24;101376.75;4907376;29;20042;-83
2022/03/21 08:23:08;;;;;;;20.13;11.52;;;;;;;9.83;51.65;101379.81;4924389;29;20067;-81
2022/03/21 08:25:35;;;;;;;25.15;12.43;;;;;;;9.84;52.11;101375.22;4923784;29;20098;-81
2022/03/21 08:28:00;;;;;;;21.98;12.52;;;;;;;9.87;51.97;101378.34;4924406;29;20123;-81
2022/03/21 08:30:29;;;;;;;20.98;11.50;;;;;;;9.95;51.55;101377.22;4923729;29;20174;-82
2022/03/21 08:32:54;;;;;;;29.60;11.57;;;;;;;9.85;51.92;101383.16;4938048;29;20031;-81
2022/03/21 08:35:21;;;;;;;20.73;10.75;;;;;;;9.97;52.00;101386.00;4940123;29;20086;-81
2022/03/21 08:37:47;;;;;;;22.65;11.77;;;;;;;10.07;51.71;101381.97;4929347;29;20629;-81
2022/03/21 08:40:13;;;;;;;22.98;11.52;;;;;;;10.11;51.45;101378.56;4927353;29;20098;-81
2022/03/21 08:42:39;;;;;;;22.70;12.88;;;;;;;10.09;51.86;101388.03;4934254;29;20027;-81
2022/03/21 08:45:05;;;;;;;23.33;13.63;;;;;;;10.16;51.59;101370.56;4943079;29;20045;-82
2022/03/21 08:47:31;;;;;;;20.50;11.73;;;;;;;10.19;51.04;101382.91;4942724;29;20150;-81
2022/03/21 08:49:56;;;;;;;24.95;11.15;;;;;;;10.24;50.76;101376.78;4942304;29;20376;-79
2022/03/21 08:52:21;;;;;;;18.05;11.25;;;;;;;10.39;51.33;101379.19;4924510;29;20107;-80
2022/03/21 08:54:47;;;;;;;24.92;12.55;;;;;;;10.37;50.53;101371.22;4925514;29;20062;-79
2022/03/21 08:57:13;;;;;;;21.80;13.15;;;;;;;10.37;52.00;101376.66;4941936;29;20544;-80
2022/03/21 08:59:38;;;;;;;27.58;12.48;;;;;;;10.48;51.85;101383.28;4943037;29;20027;-80
2022/03/21 09:02:04;;;;;;;17.75;10.52;;;;;;;10.57;52.28;101375.69;4924786;29;20042;-76
2022/03/21 09:04:29;;;;;;;22.73;13.13;;;;;;;10.69;51.93;101377.66;4923723;29;20456;-79
2022/03/21 09:06:55;;;;;;;22.40;11.38;;;;;;;10.61;52.30;101378.81;4924320;29;20027;-77
2022/03/21 09:12:04;;;;;;;23.40;11.68;;;;;;;10.82;51.73;101380.25;4923440;29;20109;-80
2022/03/21 09:14:30;;;;;;;26.10;14.07;;;;;;;10.91;51.24;101374.50;4923443;29;20122;-82
2022/03/21 09:16:56;;;;;;;19.90;12.65;;;;;;;11.01;51.42;101369.34;4923283;29;20715;-80
2022/03/21 09:19:23;;;;;;;25.67;12.13;;;;;;;11.00;51.87;101370.41;4923144;29;20031;-80
2022/03/21 09:21:50;;;;;;;21.83;12.68;;;;;;;10.98;52.95;101373.34;4922852;29;20419;-79
2022/03/21 09:24:15;;;;;;;24.27;11.75;;;;;;;11.15;51.81;101364.53;4923646;29;20562;-78
2022/03/21 09:26:40;;;;;;;21.23;11.43;;;;;;;11.22;51.83;101367.19;4922509;29;20027;-79
2022/03/21 09:29:06;;;;;;;21.98;12.10;;;;;;;11.19;51.89;101360.28;4922305;29;20050;-78
2022/03/21 09:31:32;;;;;;;21.17;12.55;;;;;;;11.23;52.11;101366.13;4921111;29;20035;-78
2022/03/21 09:33:59;;;;;;;25.38;12.02;;;;;;;11.44;51.84;101367.53;4922355;29;20031;-79
2022/03/21 09:36:25;;;;;;;22.85;11.80;;;;;;;11.33;52.15;101366.41;4921576;29;20032;-80
2022/03/21 09:38:50;;;;;;;20.70;11.75;;;;;;;11.37;52.04;101363.25;4921882;29;20198;-78
2022/03/21 09:41:22;;;;;;;23.02;12.32;;;;;;;11.54;52.57;101360.66;4921373;29;20031;-78
2022/03/21 09:43:52;;;;;;;23.48;11.85;;;;;;;11.60;52.37;101358.91;4923022;29;20513;-77
2022/03/21 09:46:20;;;;;;;21.80;12.45;;;;;;;11.66;52.65;101352.50;4922923;29;20036;-79
2022/03/21 09:48:51;;;;;;;23.35;11.32;;;;;;;11.62;53.01;101351.31;4919984;29;20380;-80
2022/03/21 09:51:25;;;;;;;23.45;11.93;;;;;;;11.86;52.92;101360.41;4929161;29;20051;-78
2022/03/21 09:53:51;;;;;;;;;;;;;;;11.77;52.57;101359.94;4931396;29;20067;-77
2022/03/21 09:56:18;;;;;;;26.40;12.68;;;;;;;11.86;51.24;101356.84;4931984;29;20281;-78
2022/03/21 09:58:44;;;;;;;27.85;14.52;;;;;;;11.95;51.20;101355.44;4930778;29;20091;-78
2022/03/21 10:01:13;;;;;;;26.17;11.73;;;;;;;12.09;51.65;101352.47;4922875;29;20550;-79
2022/03/21 10:03:39;;;;;;;28.17;13.02;;;;;;;12.12;50.99;101346.59;4925949;29;20035;-80
2022/03/21 10:06:29;;;;;;;20.58;11.70;;;;;;;12.31;51.21;101347.28;4922376;29;20055;-78
2022/03/21 10:09:10;;;;;;;23.00;12.32;;;;;;;12.23;51.31;101350.38;4922523;29;20042;-79
2022/03/21 10:11:36;;;;;;;19.83;11.63;;;;;;;12.39;51.65;101348.03;4921483;29;20102;-78
2022/03/21 10:14:21;;;;;;;22.15;11.25;;;;;;;12.60;51.48;101352.03;4920743;29;20032;-79
2022/03/21 10:17:08;;;;;;;23.15;12.30;;;;;;;12.53;51.65;101349.41;4936726;29;20073;-78
2022/03/21 10:19:52;;;;;;;26.55;11.77;;;;;;;12.52;51.02;101355.13;4922300;29;20039;-79
2022/03/21 10:22:37;;;;;;;20.83;11.13;;;;;;;12.67;51.63;101350.00;4920813;29;20090;-80
2022/03/21 10:25:06;;;;;;;21.63;10.93;;;;;;;12.61;51.86;101357.25;4922445;29;20119;-82
2022/03/21 10:27:40;;;;;;;26.88;13.45;;;;;;;12.75;51.24;101357.03;4921874;29;20031;-81
2022/03/21 10:30:08;;;;;;;23.75;12.85;;;;;;;12.85;51.52;101348.22;4907132;29;20404;-80
2022/03/21 10:32:34;;;;;;;20.50;10.98;;;;;;;12.93;51.12;101353.31;4930767;29;20019;-78
2022/03/21 10:35:24;;;;;;;19.63;11.07;;;;;;;13.04;51.20;101342.53;4931330;29;20063;-80
2022/03/21 10:37:52;;;;;;;26.23;13.25;;;;;;;12.99;51.56;101345.19;4925613;29;20145;-78
2022/03/21 10:40:23;;;;;;;22.33;11.48;;;;;;;13.11;51.26;101343.25;4928777;29;20499;-80
2022/03/21 10:42:59;;;;;;;20.17;11.13;;;;;;;13.31;51.47;101350.19;4921385;29;20028;-78
2022/03/21 10:45:36;;;;;;;21.42;12.65;;;;;;;13.33;51.17;101342.56;4921530;29;20073;-77
2022/03/21 10:48:05;;;;;;;23.05;11.57;;;;;;;13.51;50.79;101335.22;4922048;29;20040;-79
2022/03/21 10:50:33;;;;;;;19.02;10.05;;;;;;;13.34;51.71;101344.25;4921977;29;20114;-80
2022/03/21 10:53:11;;;;;;;34.88;13.68;;;;;;;13.49;50.95;101342.84;4927233;29;20082;-79
2022/03/21 10:55:39;;;;;;;23.35;11.27;;;;;;;13.60;51.30;101327.47;4942096;29;20093;-80
2022/03/21 10:58:05;;;;;;;19.33;10.75;;;;;;;13.82;50.54;101330.31;4940673;29;20488;-80
2022/03/21 11:00:31;;;;;;;19.77;11.20;;;;;;;13.89;50.32;101335.63;4937350;28;20047;-79
2022/03/21 11:03:05;;;;;;;24.88;12.13;;;;;;;13.81;51.34;101328.63;4925687;29;20494;-79
2022/03/21 11:05:37;;;;;;;19.33;10.32;;;;;;;13.79;51.72;101336.28;4925512;29;20043;-79
2022/03/21 11:08:04;;;;;;;19.48;11.55;;;;;;;14.04;50.74;101332.31;4926175;29;20027;-77
2022/03/21 11:10:33;;;;;;;21.35;11.60;;;;;;;14.16;49.93;101329.47;4920229;29;20035;-81
2022/03/21 11:16:21;;;;;;;19.30;11.20;;;;;;;14.14;51.00;101333.56;4904898;29;20054;-79
2022/03/21 11:18:48;;;;;;;17.70;10.38;;;;;;;14.18;50.36;101326.47;4905920;29;20556;-79
2022/03/21 11:21:13;;;;;;;20.55;10.98;;;;;;;14.15;48.86;101332.47;4916262;29;20043;-78
2022/03/21 11:23:40;;;;;;;16.05;8.98;;;;;;;14.48;48.52;101330.75;4924427;29;20043;-79
2022/03/21 11:26:31;;;;;;;21.58;10.23;;;;;;;14.53;48.86;101328.06;4907990;29;20094;-78
2022/03/21 11:29:16;;;;;;;18.00;9.95;;;;;;;14.62;48.49;101331.22;4925357;29;20061;-82
2022/03/21 11:32:06;;;;;;;16.13;8.82;;;;;;;14.56;49.61;101326.75;4926318;29;20040;-80
2022/03/21 11:34:50;;;;;;;17.60;9.95;;;;;;;14.63;49.65;101323.78;4926021;29;20046;-80
2022/03/21 11:37:30;;;;;;;18.63;9.57;;;;;;;14.46;50.86;101325.50;4925439;29;20577;-79
2022/03/21 11:40:31;;;;;;;20.13;12.52;;;;;;;14.48;49.60;101322.53;4925165;29;20052;-80
2022/03/21 11:43:16;;;;;;;16.13;9.40;;;;;;;14.53;49.91;101332.72;4925641;29;20028;-81
2022/03/21 11:45:41;;;;;;;36.33;12.57;;;;;;;14.70;49.18;101332.69;4923369;29;20063;-79
2022/03/21 11:48:22;;;;;;;21.92;11.68;;;;;;;14.91;49.45;101319.22;4928211;29;20090;-80
2022/03/21 11:51:16;;;;;;;20.38;8.98;;;;;;;14.81;49.84;101323.50;4933119;29;20032;-81
2022/03/21 11:53:49;;;;;;;21.88;9.93;;;;;;;14.70;50.08;101319.81;4935953;29;20111;-78
2022/03/21 11:56:41;;;;;;;18.83;11.13;;;;;;;14.77;48.62;101327.84;4944874;29;20023;-79
2022/03/21 11:59:07;;;;;;;19.95;8.43;;;;;;;14.94;49.81;101321.47;4944198;29;20031;-82
2022/03/21 12:01:33;;;;;;;23.33;10.57;;;;;;;15.07;49.76;101320.28;4921002;29;20031;-79
2022/03/21 12:04:24;;;;;;;17.75;9.48;;;;;;;15.10;49.32;101313.41;4924803;29;20075;-79